Time;durP1;ratioP1;P1;durP2;ratioP2;P2;SDS_P1;SDS_P2;PMS_P1;PMS_P2;Temp;Humidity;BMP_temperature;BMP_pressure;BME280_temperature;BME280_humidity;BME280_pressure;Samples;Min_cycle;Max_cycle;Signal;HPM_P1;HPM_P2
2021/03/19 00:00:08;;;;;;;22.77;12.93;;;3.60;99.90;;;;;;5034164;28;20144;-71
2021/03/19 00:02:34;;;;;;;24.13;12.63;;;3.60;99.90;;;;;;5033764;28;20513;-71
2021/03/19 00:05:01;;;;;;;20.73;11.37;;;3.60;99.90;;;;;;5033781;28;20091;-71
2021/03/19 00:07:40;;;;;;;21.23;11.67;;;3.60;99.90;;;;;;5029911;28;20616;-71
2021/03/19 00:10:08;;;;;;;26.53;12.73;;;3.70;99.90;;;;;;5028084;28;20102;-71
2021/03/19 00:12:35;;;;;;;21.87;11.70;;;3.70;99.90;;;;;;5025149;28;20831;-71
2021/03/19 00:15:01;;;;;;;20.20;11.73;;;3.70;99.90;;;;;;5027247;28;20123;-71
2021/03/19 00:17:28;;;;;;;22.23;12.60;;;3.50;99.90;;;;;;5027483;28;20048;-71
2021/03/19 00:19:54;;;;;;;22.30;11.30;;;3.40;99.90;;;;;;5027451;28;20155;-71
2021/03/19 00:22:21;;;;;;;24.97;12.67;;;3.50;99.90;;;;;;5030878;28;20079;-71
2021/03/19 00:24:48;;;;;;;23.97;12.80;;;3.50;99.90;;;;;;5035538;28;20056;-71
2021/03/19 00:27:15;;;;;;;20.17;12.50;;;3.50;99.90;;;;;;5035157;28;20048;-71
2021/03/19 00:29:41;;;;;;;24.67;13.40;;;3.50;99.90;;;;;;5034986;28;20041;-71
2021/03/19 00:32:08;;;;;;;22.03;11.90;;;3.50;99.90;;;;;;5034937;28;20068;-71
2021/03/19 00:34:34;;;;;;;21.23;12.00;;;3.40;99.90;;;;;;5029072;28;20619;-71
2021/03/19 00:37:01;;;;;;;26.70;13.13;;;3.50;99.90;;;;;;5029113;28;20177;-71
2021/03/19 00:39:27;;;;;;;26.90;13.47;;;3.50;99.90;;;;;;5027636;28;20044;-71
2021/03/19 00:41:55;;;;;;;27.67;13.50;;;3.50;99.90;;;;;;5033227;28;20092;-71
2021/03/19 00:44:21;;;;;;;25.63;14.10;;;3.50;99.90;;;;;;5033498;28;20561;-71
2021/03/19 00:46:47;;;;;;;23.90;13.53;;;3.60;99.90;;;;;;5035440;28;20088;-71
2021/03/19 00:49:14;;;;;;;26.17;13.13;;;3.50;99.90;;;;;;5033989;28;20087;-71
2021/03/19 00:51:40;;;;;;;26.67;13.20;;;3.50;99.90;;;;;;5035309;28;21126;-71
2021/03/19 00:54:07;;;;;;;25.10;13.63;;;3.60;99.90;;;;;;5037080;28;21296;-71
2021/03/19 00:56:33;;;;;;;21.70;12.67;;;3.50;99.90;;;;;;5038842;28;20102;-71
2021/03/19 00:59:01;;;;;;;22.60;12.10;;;3.50;99.90;;;;;;5037965;28;21291;-71
2021/03/19 01:01:27;;;;;;;29.80;14.00;;;3.40;99.90;;;;;;5038009;28;20049;-72
2021/03/19 01:03:54;;;;;;;25.70;14.00;;;3.50;99.90;;;;;;5037578;28;20061;-72
2021/03/19 01:06:20;;;;;;;27.10;14.47;;;3.50;99.90;;;;;;5038894;28;20079;-71
2021/03/19 01:08:47;;;;;;;27.73;14.43;;;3.60;99.90;;;;;;5038177;28;20099;-71
2021/03/19 01:11:13;;;;;;;25.97;14.63;;;3.70;99.90;;;;;;5038363;28;20045;-71
2021/03/19 01:13:40;;;;;;;26.30;13.73;;;3.60;99.90;;;;;;5036992;28;20080;-71
2021/03/19 01:16:07;;;;;;;27.13;13.70;;;3.70;99.90;;;;;;5038247;28;20372;-71
2021/03/19 01:18:34;;;;;;;27.60;14.57;;;3.60;99.90;;;;;;5039130;28;20092;-71
2021/03/19 01:21:00;;;;;;;27.67;15.23;;;3.60;99.90;;;;;;5037985;28;20056;-71
2021/03/19 01:23:27;;;;;;;29.17;15.97;;;3.50;99.90;;;;;;5038471;28;20409;-72
2021/03/19 01:25:54;;;;;;;28.43;15.80;;;3.50;99.90;;;;;;5037898;28;20064;-71
2021/03/19 01:28:21;;;;;;;27.30;16.20;;;3.50;99.90;;;;;;5037551;28;20051;-71
2021/03/19 01:30:48;;;;;;;29.77;15.80;;;3.40;99.90;;;;;;5041021;28;20077;-71
2021/03/19 01:33:16;;;;;;;29.40;16.93;;;3.40;99.90;;;;;;5037999;28;20067;-71
2021/03/19 01:35:43;;;;;;;32.63;17.37;;;3.50;99.90;;;;;;5038163;28;20056;-71
2021/03/19 01:38:11;;;;;;;27.20;15.93;;;3.50;99.90;;;;;;5036821;28;20052;-71
2021/03/19 01:40:39;;;;;;;30.70;16.93;;;3.60;99.90;;;;;;5036909;28;20420;-71
2021/03/19 01:43:07;;;;;;;29.77;16.73;;;3.50;99.90;;;;;;5035839;28;20084;-71
2021/03/19 01:46:07;;;;;;;31.27;17.30;;;3.40;99.90;;;;;;5037126;28;20052;-71
2021/03/19 01:49:11;;;;;;;31.23;17.33;;;3.40;99.90;;;;;;5037039;28;20097;-71
2021/03/19 01:52:15;;;;;;;35.17;17.97;;;3.50;99.90;;;;;;5037117;28;20497;-71
2021/03/19 01:55:19;;;;;;;32.33;16.80;;;3.50;99.90;;;;;;5036014;28;20048;-71
2021/03/19 01:58:23;;;;;;;36.07;17.20;;;3.40;99.90;;;;;;5037734;28;20048;-71
2021/03/19 02:01:38;;;;;;;31.90;17.83;;;3.40;99.90;;;;;;5034314;28;20048;-71
2021/03/19 02:04:42;;;;;;;36.20;19.00;;;3.30;99.90;;;;;;4992366;28;20057;-71
2021/03/19 02:07:45;;;;;;;31.77;17.20;;;3.30;99.90;;;;;;5035569;28;20059;-71
2021/03/19 02:10:49;;;;;;;33.27;17.17;;;3.30;99.90;;;;;;5036743;28;20056;-72
2021/03/19 02:13:53;;;;;;;33.70;17.53;;;3.30;99.90;;;;;;5035567;28;20075;-71
2021/03/19 02:16:57;;;;;;;31.93;16.93;;;3.30;99.90;;;;;;5036869;28;20091;-71
2021/03/19 02:20:00;;;;;;;35.70;18.67;;;3.30;99.90;;;;;;5037047;28;20202;-71
2021/03/19 02:23:04;;;;;;;33.97;17.13;;;3.30;99.90;;;;;;5035879;28;20114;-71
2021/03/19 02:26:07;;;;;;;34.57;18.47;;;3.30;99.90;;;;;;5038511;28;20107;-71
2021/03/19 02:29:11;;;;;;;30.53;17.00;;;3.30;99.90;;;;;;5043729;28;20778;-71
2021/03/19 02:31:55;;;;;;;32.73;16.90;;;3.30;99.90;;;;;;5046914;28;20052;-71
2021/03/19 02:34:25;;;;;;;32.43;18.87;;;3.40;99.90;;;;;;5043419;28;20117;-71
2021/03/19 02:36:52;;;;;;;37.63;17.90;;;3.30;99.90;;;;;;5043899;28;20055;-71
2021/03/19 02:39:18;;;;;;;32.30;16.80;;;3.40;99.90;;;;;;5043234;28;20052;-71
2021/03/19 02:41:45;;;;;;;35.20;19.07;;;3.40;99.90;;;;;;5042595;28;20084;-71
2021/03/19 02:44:11;;;;;;;38.23;19.43;;;3.40;99.90;;;;;;5040087;28;20102;-71
2021/03/19 02:46:41;;;;;;;31.63;17.80;;;3.40;99.90;;;;;;5041600;28;20052;-71
2021/03/19 02:49:08;;;;;;;35.63;18.60;;;3.40;99.90;;;;;;5041424;28;20048;-71
2021/03/19 02:51:35;;;;;;;36.73;19.17;;;3.40;99.90;;;;;;5042150;28;20080;-71
2021/03/19 02:54:01;;;;;;;32.20;19.03;;;3.40;99.90;;;;;;5041277;28;20583;-71
2021/03/19 02:56:28;;;;;;;35.63;19.93;;;3.50;99.90;;;;;;5041189;28;20841;-71
2021/03/19 02:58:54;;;;;;;37.50;20.73;;;3.40;99.90;;;;;;5041061;28;20413;-71
2021/03/19 03:01:21;;;;;;;40.03;21.70;;;3.40;99.90;;;;;;5041031;28;20055;-71
2021/03/19 03:03:47;;;;;;;47.00;23.93;;;3.30;99.90;;;;;;5039391;28;20052;-71
2021/03/19 03:06:15;;;;;;;49.27;24.60;;;3.40;99.90;;;;;;5040740;28;20044;-71
2021/03/19 03:08:41;;;;;;;42.83;22.53;;;3.50;99.90;;;;;;5039933;28;20075;-71
2021/03/19 03:11:08;;;;;;;45.73;22.63;;;3.50;99.90;;;;;;5040978;28;20516;-71
2021/03/19 03:13:35;;;;;;;42.77;22.40;;;3.50;99.90;;;;;;5041068;28;20501;-71
2021/03/19 03:16:02;;;;;;;42.00;22.53;;;3.40;99.90;;;;;;5043611;28;20151;-71
2021/03/19 03:18:29;;;;;;;43.80;22.10;;;3.30;99.90;;;;;;5044916;28;20087;-71
2021/03/19 03:20:58;;;;;;;46.50;23.13;;;3.10;99.90;;;;;;5043399;28;20076;-71
2021/03/19 03:23:28;;;;;;;38.47;20.27;;;3.20;99.90;;;;;;5042787;28;20048;-71
2021/03/19 03:25:56;;;;;;;35.10;18.10;;;3.20;99.90;;;;;;5042921;28;20059;-71
2021/03/19 03:28:24;;;;;;;36.33;19.17;;;3.10;99.90;;;;;;5042234;28;20064;-71
2021/03/19 03:30:53;;;;;;;41.00;20.73;;;3.10;99.90;;;;;;5042411;28;20489;-71
2021/03/19 03:33:20;;;;;;;47.73;22.37;;;3.20;99.90;;;;;;5039934;28;20072;-71
2021/03/19 03:35:48;;;;;;;43.50;20.80;;;3.20;99.90;;;;;;5040767;28;20080;-71
2021/03/19 03:38:18;;;;;;;37.20;19.60;;;3.10;99.90;;;;;;5041545;28;20056;-71
2021/03/19 03:40:48;;;;;;;38.83;19.60;;;3.10;99.90;;;;;;5041905;28;20504;-71
2021/03/19 03:43:16;;;;;;;40.40;20.43;;;3.20;99.90;;;;;;5039973;28;20075;-71
2021/03/19 03:45:43;;;;;;;35.97;18.70;;;3.10;99.90;;;;;;5040719;28;21209;-71
2021/03/19 03:48:11;;;;;;;36.67;17.73;;;3.10;99.90;;;;;;5040779;28;20052;-71
2021/03/19 03:50:39;;;;;;;39.87;18.73;;;3.10;99.90;;;;;;5040887;28;20095;-71
2021/03/19 03:53:07;;;;;;;33.63;16.47;;;3.10;99.90;;;;;;5040455;28;20045;-71
2021/03/19 03:55:34;;;;;;;32.57;15.90;;;3.10;99.90;;;;;;5041298;28;20501;-71
2021/03/19 03:58:01;;;;;;;36.17;16.43;;;3.10;99.90;;;;;;5040880;28;20078;-71
2021/03/19 04:00:29;;;;;;;34.63;17.57;;;3.00;99.90;;;;;;5041090;28;20071;-71
2021/03/19 04:02:56;;;;;;;32.83;16.30;;;3.00;99.90;;;;;;5039360;28;20053;-71
2021/03/19 04:05:25;;;;;;;35.33;17.80;;;2.90;99.90;;;;;;5042001;28;20056;-71
2021/03/19 04:07:52;;;;;;;39.00;17.13;;;2.90;99.90;;;;;;5041216;28;20052;-71
2021/03/19 04:10:19;;;;;;;38.10;18.37;;;2.90;99.90;;;;;;5040959;28;20060;-71
2021/03/19 04:12:46;;;;;;;34.93;17.83;;;2.90;99.90;;;;;;5039612;28;20090;-71
2021/03/19 04:15:15;;;;;;;35.27;16.67;;;2.80;99.90;;;;;;5039999;28;20078;-71
2021/03/19 04:17:43;;;;;;;36.30;17.87;;;2.80;99.90;;;;;;5040799;28;20490;-71
2021/03/19 04:20:11;;;;;;;38.60;15.97;;;2.80;99.90;;;;;;5040906;28;20131;-71
2021/03/19 04:22:39;;;;;;;32.50;15.30;;;2.80;99.90;;;;;;5039374;28;20061;-71
2021/03/19 04:25:06;;;;;;;34.37;17.10;;;2.90;99.90;;;;;;5039584;28;20127;-71
2021/03/19 04:27:38;;;;;;;34.53;17.23;;;2.80;99.90;;;;;;5038907;28;20098;-71
2021/03/19 04:30:06;;;;;;;31.57;16.27;;;2.80;99.90;;;;;;5040649;28;20102;-71
2021/03/19 04:32:34;;;;;;;32.37;16.27;;;2.70;99.90;;;;;;5040196;28;20080;-71
2021/03/19 04:35:00;;;;;;;35.07;15.27;;;2.60;99.90;;;;;;5039847;28;20565;-71
2021/03/19 04:37:27;;;;;;;31.13;13.77;;;2.80;99.90;;;;;;5041558;28;20562;-71
2021/03/19 04:39:53;;;;;;;30.97;14.40;;;2.70;99.90;;;;;;5040797;28;20060;-71
2021/03/19 04:42:20;;;;;;;27.40;13.33;;;3.00;99.90;;;;;;5039604;28;20044;-71
2021/03/19 04:44:48;;;;;;;30.17;14.10;;;2.90;99.90;;;;;;5039963;28;21349;-71
2021/03/19 04:47:16;;;;;;;28.03;14.40;;;2.90;99.90;;;;;;5039376;28;20057;-71
2021/03/19 04:49:43;;;;;;;30.77;14.97;;;2.90;99.90;;;;;;5040471;28;20049;-71
2021/03/19 04:52:09;;;;;;;26.57;13.47;;;3.00;99.90;;;;;;5040941;28;20045;-69
2021/03/19 04:54:36;;;;;;;29.20;14.17;;;2.90;99.90;;;;;;5037013;28;20076;-69
2021/03/19 04:57:04;;;;;;;28.93;14.07;;;2.80;99.90;;;;;;5040479;28;20075;-69
2021/03/19 04:59:30;;;;;;;26.43;13.57;;;2.90;99.90;;;;;;5040082;28;20562;-71
2021/03/19 05:01:59;;;;;;;33.00;14.73;;;2.80;99.90;;;;;;5034808;28;20044;-71
2021/03/19 05:04:28;;;;;;;30.23;15.03;;;2.70;99.90;;;;;;5033764;28;20048;-72
2021/03/19 05:07:00;;;;;;;29.93;13.60;;;2.70;99.90;;;;;;5038050;28;20082;-72
2021/03/19 05:09:27;;;;;;;30.93;14.13;;;2.70;99.90;;;;;;5040152;28;20131;-71
2021/03/19 05:11:54;;;;;;;26.50;13.07;;;2.60;99.90;;;;;;5041642;28;20059;-71
2021/03/19 05:14:21;;;;;;;32.63;14.03;;;2.70;99.90;;;;;;5039938;28;20103;-71
2021/03/19 05:16:47;;;;;;;30.67;14.13;;;2.70;99.90;;;;;;5040101;28;20142;-69
2021/03/19 05:19:15;;;;;;;33.37;14.60;;;2.80;99.90;;;;;;5040905;28;20056;-68
2021/03/19 05:21:42;;;;;;;30.03;12.97;;;2.70;99.90;;;;;;5039476;28;20921;-69
2021/03/19 05:24:10;;;;;;;27.77;12.20;;;2.60;99.90;;;;;;5039037;28;20135;-69
2021/03/19 05:26:37;;;;;;;31.47;13.93;;;2.70;99.90;;;;;;5039409;28;20122;-69
2021/03/19 05:29:03;;;;;;;27.40;13.73;;;2.70;99.90;;;;;;5040712;28;20090;-69
2021/03/19 05:31:30;;;;;;;31.13;14.43;;;2.70;99.90;;;;;;5041325;28;20079;-69
2021/03/19 05:33:56;;;;;;;31.30;14.17;;;2.70;99.90;;;;;;5039706;28;20056;-68
2021/03/19 05:36:25;;;;;;;30.10;13.97;;;2.70;99.90;;;;;;5040433;28;20076;-69
2021/03/19 05:38:53;;;;;;;31.77;14.20;;;2.70;99.90;;;;;;5041252;28;20044;-69
2021/03/19 05:41:26;;;;;;;30.37;14.13;;;2.70;99.90;;;;;;5044293;28;20135;-68
2021/03/19 05:44:01;;;;;;;30.67;14.03;;;2.70;99.90;;;;;;5043501;28;20060;-71
2021/03/19 05:46:31;;;;;;;30.50;14.93;;;2.70;99.90;;;;;;5044584;28;20460;-71
2021/03/19 05:49:01;;;;;;;31.10;14.40;;;2.60;99.90;;;;;;5044157;28;20052;-71
2021/03/19 05:51:36;;;;;;;30.63;14.27;;;2.70;99.90;;;;;;5045129;28;20056;-71
2021/03/19 05:54:13;;;;;;;34.63;15.00;;;2.60;99.90;;;;;;5042421;28;20048;-72
2021/03/19 05:56:41;;;;;;;;;;;2.70;99.90;;;;;;5044912;28;20051;-72
2021/03/19 05:59:08;;;;;;;33.00;13.80;;;2.60;99.90;;;;;;5044288;28;19920;-71
2021/03/19 06:01:36;;;;;;;32.07;14.40;;;2.60;99.90;;;;;;5041522;28;20055;-71
2021/03/19 06:04:04;;;;;;;30.47;13.77;;;2.60;99.90;;;;;;5038357;28;20471;-71
2021/03/19 06:06:54;;;;;;;36.53;14.60;;;2.70;99.90;;;;;;5039699;28;20056;-72
2021/03/19 06:09:29;;;;;;;30.70;14.00;;;2.70;99.90;;;;;;5039874;28;20079;-71
2021/03/19 06:12:01;;;;;;;33.80;15.57;;;2.50;99.90;;;;;;5038970;28;20052;-71
2021/03/19 06:14:31;;;;;;;32.17;14.63;;;2.60;99.90;;;;;;5037798;28;20521;-71
2021/03/19 06:17:08;;;;;;;32.53;14.77;;;2.60;99.90;;;;;;5039004;28;20053;-71
2021/03/19 06:19:39;;;;;;;31.73;14.00;;;2.70;99.90;;;;;;5040999;28;20063;-72
2021/03/19 06:22:16;;;;;;;30.03;14.07;;;2.70;99.90;;;;;;5033405;28;20075;-71
2021/03/19 06:24:52;;;;;;;27.07;13.00;;;2.90;99.90;;;;;;5034439;28;20040;-72
2021/03/19 06:27:26;;;;;;;29.53;13.67;;;2.90;99.90;;;;;;5038549;28;20144;-72
2021/03/19 06:29:56;;;;;;;29.67;13.80;;;2.90;99.90;;;;;;5036846;28;20091;-71
2021/03/19 06:32:27;;;;;;;25.37;12.60;;;2.90;99.90;;;;;;5037160;28;20048;-71
2021/03/19 06:35:16;;;;;;;29.10;13.20;;;2.90;99.90;;;;;;5040094;28;20056;-72
2021/03/19 06:37:44;;;;;;;27.43;13.17;;;3.00;99.90;;;;;;5036030;28;20126;-71
2021/03/19 06:40:32;;;;;;;26.70;13.77;;;2.90;99.90;;;;;;5048558;28;20056;-72
2021/03/19 06:43:18;;;;;;;28.77;14.03;;;3.00;99.90;;;;;;5048035;28;20088;-71
2021/03/19 06:45:47;;;;;;;33.65;15.63;;;2.90;99.90;;;;;;5049661;28;20059;-71
2021/03/19 06:48:34;;;;;;;33.73;15.17;;;3.00;99.90;;;;;;5048909;28;20116;-71
2021/03/19 06:51:01;;;;;;;33.10;15.63;;;3.10;99.90;;;;;;5045309;28;20084;-72
2021/03/19 06:53:30;;;;;;;32.23;15.23;;;3.10;99.90;;;;;;5048021;28;20053;-72
2021/03/19 06:56:13;;;;;;;32.80;14.90;;;3.10;99.90;;;;;;5048511;28;20048;-72
2021/03/19 06:58:47;;;;;;;36.20;14.07;;;3.20;99.90;;;;;;5048243;28;20555;-72
2021/03/19 07:01:28;;;;;;;35.33;15.97;;;3.30;99.90;;;;;;5047747;28;20056;-72
2021/03/19 07:04:21;;;;;;;33.17;14.77;;;3.40;99.90;;;;;;5047734;28;20060;-71
2021/03/19 07:07:05;;;;;;;31.73;15.33;;;3.60;99.90;;;;;;5048136;28;20087;-72
2021/03/19 07:09:43;;;;;;;37.30;17.00;;;3.50;99.90;;;;;;5048266;28;20044;-72
2021/03/19 07:12:24;;;;;;;37.67;17.43;;;3.70;99.90;;;;;;5047502;28;20525;-71
2021/03/19 07:15:19;;;;;;;35.67;16.03;;;3.70;99.90;;;;;;5048010;28;20472;-71
2021/03/19 07:17:55;;;;;;;32.10;15.30;;;3.70;99.90;;;;;;5048998;28;20551;-72
2021/03/19 07:20:32;;;;;;;35.20;16.67;;;3.90;99.90;;;;;;5048581;28;20040;-71
2021/03/19 07:23:11;;;;;;;37.63;15.97;;;3.90;99.90;;;;;;5046859;28;20053;-73
2021/03/19 07:25:52;;;;;;;30.30;14.83;;;4.00;99.90;;;;;;5048032;28;20521;-71
2021/03/19 07:28:43;;;;;;;35.30;15.93;;;4.00;99.90;;;;;;5047879;28;20491;-72
2021/03/19 07:31:23;;;;;;;34.40;15.53;;;4.00;99.90;;;;;;5048225;28;20517;-72
2021/03/19 07:34:09;;;;;;;33.77;15.73;;;4.10;99.90;;;;;;5047993;28;20048;-72
2021/03/19 07:36:44;;;;;;;33.77;15.87;;;4.10;99.90;;;;;;5048154;28;20059;-71
2021/03/19 07:39:46;;;;;;;35.00;15.63;;;3.90;99.90;;;;;;5046642;28;20102;-72
2021/03/19 07:42:20;;;;;;;30.37;14.83;;;3.90;99.90;;;;;;5042991;28;20064;-71
2021/03/19 07:44:59;;;;;;;33.20;14.83;;;4.00;99.90;;;;;;5046421;28;20765;-72
2021/03/19 07:47:45;;;;;;;34.53;14.83;;;4.10;99.90;;;;;;5040357;28;20080;-71
2021/03/19 07:50:24;;;;;;;35.43;15.60;;;4.00;99.90;;;;;;5037176;28;20055;-71
2021/03/19 07:53:25;;;;;;;33.23;16.87;;;4.00;99.90;;;;;;5036773;28;20052;-71
2021/03/19 07:55:59;;;;;;;35.83;16.70;;;3.80;99.90;;;;;;5035843;28;20103;-75
2021/03/19 07:58:43;;;;;;;35.73;16.20;;;3.90;99.90;;;;;;5037686;28;20323;-76
2021/03/19 08:01:23;;;;;;;29.43;14.77;;;3.90;99.90;;;;;;5036938;28;20056;-70
2021/03/19 08:03:59;;;;;;;33.50;15.47;;;4.10;99.90;;;;;;5036629;28;20091;-70
2021/03/19 08:06:33;;;;;;;40.58;17.55;;;4.00;99.90;;;;;;5036853;28;20145;-69
2021/03/19 08:09:03;;;;;;;39.40;16.80;;;4.10;99.90;;;;;;5038278;28;20091;-70
2021/03/19 08:11:38;;;;;;;28.30;13.87;;;4.00;99.90;;;;;;5037540;28;20535;-71
2021/03/19 08:14:25;;;;;;;32.47;15.80;;;4.20;99.90;;;;;;5037263;28;20052;-69
2021/03/19 08:16:59;;;;;;;28.80;14.30;;;4.30;99.90;;;;;;5038986;28;20150;-70
2021/03/19 08:19:33;;;;;;;30.40;15.03;;;4.40;99.90;;;;;;5036031;28;20051;-72
2021/03/19 08:22:15;;;;;;;31.70;14.60;;;4.60;99.90;;;;;;5038255;28;20147;-72
2021/03/19 08:24:49;;;;;;;27.47;14.23;;;4.60;99.90;;;;;;5043802;28;20087;-72
2021/03/19 08:27:39;;;;;;;28.57;14.47;;;5.20;99.90;;;;;;5044939;28;20432;-72
2021/03/19 08:30:13;;;;;;;23.70;12.37;;;5.60;99.90;;;;;;5046398;28;20078;-71
2021/03/19 08:32:53;;;;;;;24.07;12.50;;;6.10;99.90;;;;;;5045279;28;20048;-72
2021/03/19 08:35:29;;;;;;;22.65;11.50;;;7.10;99.90;;;;;;5046747;28;20052;-72
2021/03/19 08:38:07;;;;;;;23.30;12.32;;;8.10;99.90;;;;;;5043887;28;20079;-72
2021/03/19 08:40:38;;;;;;;21.50;12.45;;;8.60;99.90;;;;;;5046531;28;20056;-72
2021/03/19 08:43:07;;;;;;;21.05;12.27;;;9.10;99.90;;;;;;5046561;28;20143;-70
2021/03/19 08:45:34;;;;;;;20.25;11.57;;;9.20;99.90;;;;;;5046806;28;20052;-70
2021/03/19 08:48:04;;;;;;;23.13;12.85;;;9.20;99.90;;;;;;5046540;28;20053;-70
2021/03/19 08:50:35;;;;;;;21.60;12.77;;;9.30;99.90;;;;;;5048764;28;20136;-69
2021/03/19 08:53:05;;;;;;;25.95;13.55;;;9.20;99.90;;;;;;5040464;28;20056;-70
2021/03/19 08:55:33;;;;;;;22.25;12.25;;;8.90;99.90;;;;;;5044893;28;20049;-72
2021/03/19 08:58:44;;;;;;;21.80;12.10;;;8.90;99.90;;;;;;5042127;28;20167;-70
2021/03/19 09:01:11;;;;;;;23.20;11.43;;;8.60;99.90;;;;;;5045899;28;20040;-70
2021/03/19 09:03:54;;;;;;;20.95;10.98;;;8.20;99.90;;;;;;5042936;28;20084;-70
2021/03/19 09:06:41;;;;;;;21.02;10.45;;;7.80;99.90;;;;;;5041962;28;20064;-70
2021/03/19 09:09:39;;;;;;;22.90;11.27;;;7.00;99.90;;;;;;5045495;28;20600;-71
2021/03/19 09:12:18;;;;;;;23.80;11.65;;;6.60;99.90;;;;;;5041714;28;20040;-71
2021/03/19 09:14:52;;;;;;;21.60;10.52;;;6.40;99.90;;;;;;5042712;28;20118;-71
2021/03/19 09:17:55;;;;;;;24.60;11.63;;;6.00;99.90;;;;;;5045012;28;20476;-71
2021/03/19 09:21:03;;;;;;;18.97;10.00;;;5.80;99.90;;;;;;5051387;28;20409;-70
2021/03/19 09:23:52;;;;;;;22.60;11.50;;;5.60;99.90;;;;;;5049169;28;20055;-70
2021/03/19 09:26:51;;;;;;;19.47;10.53;;;5.90;99.90;;;;;;5048105;28;20052;-71
2021/03/19 09:29:33;;;;;;;16.73;8.85;;;6.40;99.90;;;;;;5043870;28;20483;-71
2021/03/19 09:32:20;;;;;;;17.73;9.60;;;7.60;99.90;;;;;;5048311;28;20125;-71
2021/03/19 09:35:11;;;;;;;16.25;9.23;;;9.50;99.90;;;;;;5048680;28;20586;-71
2021/03/19 09:37:59;;;;;;;16.30;8.65;;;10.10;99.90;;;;;;5048340;28;20401;-71
2021/03/19 09:40:46;;;;;;;13.95;7.72;;;11.40;99.90;;;;;;5049847;28;20581;-71
2021/03/19 09:43:35;;;;;;;15.15;8.82;;;11.90;99.90;;;;;;5047697;28;20458;-70
2021/03/19 09:46:12;;;;;;;14.75;7.93;;;12.30;99.90;;;;;;5047889;28;20048;-71
2021/03/19 09:48:39;;;;;;;14.57;8.90;;;12.50;99.90;;;;;;5048965;28;20828;-71
2021/03/19 09:51:34;;;;;;;15.18;8.25;;;13.20;99.90;;;;;;5048640;28;20063;-70
2021/03/19 09:54:17;;;;;;;13.18;7.80;;;12.60;99.90;;;;;;5041432;28;20045;-70
2021/03/19 09:56:44;;;;;;;14.70;9.15;;;11.60;99.90;;;;;;5048717;28;20095;-70
2021/03/19 09:59:20;;;;;;;13.93;8.00;;;11.00;99.90;;;;;;5045794;28;20578;-70
2021/03/19 10:01:47;;;;;;;19.38;9.23;;;10.20;99.90;;;;;;5049242;28;20318;-71
2021/03/19 10:04:28;;;;;;;20.10;9.43;;;9.20;99.90;;;;;;5048919;28;20059;-71
2021/03/19 10:06:56;;;;;;;16.35;9.00;;;8.80;99.90;;;;;;5049612;28;20063;-71
2021/03/19 10:09:24;;;;;;;17.38;7.45;;;8.60;99.90;;;;;;5049092;28;20094;-71
2021/03/19 10:12:03;;;;;;;14.38;7.70;;;9.00;99.90;;;;;;5049611;28;20106;-71
2021/03/19 10:14:34;;;;;;;15.55;7.40;;;9.00;99.90;;;;;;5049244;28;20482;-71
2021/03/19 10:17:26;;;;;;;13.55;7.57;;;10.30;99.90;;;;;;5051263;28;20095;-71
2021/03/19 10:19:57;;;;;;;14.40;8.18;;;10.10;99.90;;;;;;5046356;28;20106;-71
2021/03/19 10:22:38;;;;;;;14.15;6.97;;;9.70;99.90;;;;;;5050756;28;20059;-71
2021/03/19 10:25:25;;;;;;;13.05;5.68;;;9.70;99.90;;;;;;5051205;28;20059;-71
2021/03/19 10:27:54;;;;;;;9.88;5.53;;;9.60;99.90;;;;;;5048403;28;20079;-71
2021/03/19 10:30:24;;;;;;;10.45;5.80;;;9.30;99.90;;;;;;5051171;28;20044;-71
2021/03/19 10:32:53;;;;;;;12.57;6.18;;;9.20;99.90;;;;;;5055650;28;20048;-71
2021/03/19 10:35:27;;;;;;;11.68;6.47;;;8.90;99.90;;;;;;5055586;28;20508;-71
2021/03/19 10:38:04;;;;;;;12.23;6.07;;;8.70;99.90;;;;;;5049370;28;20049;-71
2021/03/19 10:40:36;;;;;;;9.65;4.82;;;8.00;99.90;;;;;;5047661;28;20501;-71
2021/03/19 10:43:10;;;;;;;10.50;5.07;;;7.50;99.90;;;;;;5046408;28;20056;-71
2021/03/19 10:45:43;;;;;;;13.27;5.70;;;7.40;99.90;;;;;;5056367;28;20442;-71
2021/03/19 10:48:17;;;;;;;11.05;5.60;;;7.00;99.90;;;;;;5064713;28;20028;-71
2021/03/19 10:50:59;;;;;;;11.30;5.88;;;6.80;99.90;;;;;;5064353;28;20076;-71
2021/03/19 10:53:39;;;;;;;12.73;6.63;;;6.90;99.90;;;;;;5063896;28;20053;-71
2021/03/19 10:56:06;;;;;;;12.27;6.30;;;7.00;99.90;;;;;;5063856;28;20067;-71
2021/03/19 10:58:41;;;;;;;17.83;7.60;;;7.40;99.90;;;;;;5065772;28;20044;-71
2021/03/19 11:01:31;;;;;;;11.60;6.15;;;7.60;99.90;;;;;;5062518;28;20132;-71
2021/03/19 11:03:58;;;;;;;11.25;5.70;;;7.30;99.90;;;;;;5066769;28;20071;-71
2021/03/19 11:06:35;;;;;;;12.32;5.75;;;7.10;99.90;;;;;;5051990;28;20080;-71
2021/03/19 11:09:11;;;;;;;;;;;7.40;99.90;;;;;;5049777;28;20134;-71
2021/03/19 11:11:38;;;;;;;10.75;5.53;;;7.40;99.90;;;;;;5049196;28;19924;-71
2021/03/19 11:14:07;;;;;;;12.13;5.40;;;7.40;99.90;;;;;;5047387;28;20616;-71
2021/03/19 11:16:40;;;;;;;11.98;5.45;;;7.30;99.90;;;;;;5048826;28;20055;-71
2021/03/19 11:19:09;;;;;;;11.32;5.00;;;7.60;99.90;;;;;;5049061;28;20531;-71
2021/03/19 11:21:41;;;;;;;9.52;5.05;;;7.90;99.90;;;;;;5048491;28;20084;-71
2021/03/19 11:24:24;;;;;;;17.20;6.00;;;8.40;99.90;;;;;;5047658;28;20060;-71
2021/03/19 11:27:20;;;;;;;13.38;5.25;;;8.90;99.90;;;;;;5047493;28;20100;-71
2021/03/19 11:29:48;;;;;;;10.52;5.00;;;8.80;99.90;;;;;;5048942;28;20114;-72
2021/03/19 11:32:32;;;;;;;11.38;5.38;;;8.30;99.90;;;;;;5048765;28;20059;-71
2021/03/19 11:35:16;;;;;;;11.10;5.15;;;8.10;99.90;;;;;;5048811;28;20135;-71
2021/03/19 11:37:45;;;;;;;9.75;5.03;;;8.00;99.90;;;;;;5049496;28;20052;-71
2021/03/19 11:40:35;;;;;;;8.95;4.63;;;7.50;99.90;;;;;;5049239;28;20117;-71
2021/03/19 11:43:04;;;;;;;11.93;4.50;;;8.10;99.90;;;;;;5047744;28;20765;-71
2021/03/19 11:45:36;;;;;;;8.90;4.18;;;8.20;99.90;;;;;;5049409;28;20049;-71
2021/03/19 11:48:15;;;;;;;10.82;4.93;;;8.20;99.90;;;;;;5048499;28;20121;-71
2021/03/19 11:50:48;;;;;;;10.57;4.65;;;8.20;99.90;;;;;;5047034;28;20051;-71
2021/03/19 11:53:20;;;;;;;11.15;4.55;;;8.30;99.90;;;;;;5046650;28;20572;-71
2021/03/19 11:55:52;;;;;;;10.60;4.53;;;8.60;99.90;;;;;;5047753;28;20126;-71
2021/03/19 11:58:23;;;;;;;11.60;5.25;;;8.60;99.90;;;;;;5047605;28;20055;-71
2021/03/19 12:00:50;;;;;;;10.20;4.53;;;8.70;99.90;;;;;;5044261;28;20048;-71
2021/03/19 12:03:19;;;;;;;9.98;4.35;;;8.60;99.90;;;;;;5044799;28;20501;-71
2021/03/19 12:05:46;;;;;;;9.25;4.30;;;9.70;99.90;;;;;;5045804;28;20056;-71
2021/03/19 12:08:13;;;;;;;9.95;4.85;;;10.70;99.90;;;;;;5045819;28;20048;-71
2021/03/19 12:10:39;;;;;;;13.88;5.22;;;11.00;99.90;;;;;;5045866;28;20481;-71
2021/03/19 12:13:13;;;;;;;9.43;4.80;;;10.70;99.90;;;;;;5044927;28;20049;-71
2021/03/19 12:15:40;;;;;;;8.10;4.05;;;11.50;99.90;;;;;;5045260;28;20049;-71
2021/03/19 12:18:07;;;;;;;8.80;4.50;;;11.50;99.90;;;;;;5043994;28;20052;-71
2021/03/19 12:20:34;;;;;;;8.18;4.18;;;11.20;99.90;;;;;;5043857;28;21153;-71
2021/03/19 12:23:01;;;;;;;8.55;4.53;;;10.70;99.90;;;;;;5043382;28;20098;-71
2021/03/19 12:25:31;;;;;;;12.23;4.57;;;10.00;99.90;;;;;;5045899;28;20242;-71
2021/03/19 12:27:57;;;;;;;8.82;4.72;;;9.60;99.90;;;;;;5046091;28;20060;-71
2021/03/19 12:30:26;;;;;;;11.48;5.50;;;9.80;99.90;;;;;;5048732;28;20048;-71
2021/03/19 12:32:54;;;;;;;8.27;4.07;;;9.10;99.90;;;;;;5046356;28;20126;-71
2021/03/19 12:35:22;;;;;;;9.20;4.55;;;8.40;99.90;;;;;;5047811;28;20469;-71
2021/03/19 12:37:48;;;;;;;10.45;5.18;;;8.20;99.90;;;;;;5047829;28;20078;-71
2021/03/19 12:40:15;;;;;;;10.75;5.32;;;7.70;99.90;;;;;;5046299;28;20056;-71
2021/03/19 12:42:42;;;;;;;10.43;5.28;;;7.90;99.90;;;;;;5045923;28;20040;-71
2021/03/19 12:45:11;;;;;;;12.13;5.03;;;8.60;99.90;;;;;;5046185;28;20124;-71
2021/03/19 12:47:38;;;;;;;10.35;5.10;;;9.30;99.90;;;;;;5047014;28;20247;-71
2021/03/19 12:50:06;;;;;;;10.38;5.53;;;10.00;99.90;;;;;;5044372;28;20049;-71
2021/03/19 12:52:33;;;;;;;11.82;5.05;;;9.90;99.90;;;;;;5045527;28;20048;-71
2021/03/19 12:54:59;;;;;;;13.38;5.78;;;9.40;99.90;;;;;;5049781;28;20087;-71
2021/03/19 12:57:25;;;;;;;;;;;9.20;99.90;;;;;;5046290;28;20067;-71
2021/03/19 12:59:52;;;;;;;9.75;4.63;;;9.80;99.90;;;;;;5047014;28;19920;-71
2021/03/19 13:02:18;;;;;;;12.43;5.20;;;10.80;99.90;;;;;;5042462;28;20048;-71
2021/03/19 13:04:45;;;;;;;;;;;10.30;99.90;;;;;;5045379;28;20078;-71
2021/03/19 13:07:12;;;;;;;9.82;5.43;;;10.00;99.90;;;;;;5044631;28;20072;-72
2021/03/19 13:09:38;;;;;;;9.30;4.65;;;9.50;99.90;;;;;;5046631;28;20114;-71
2021/03/19 13:12:09;;;;;;;11.02;4.40;;;9.00;99.90;;;;;;5047568;28;20041;-71
2021/03/19 13:14:36;;;;;;;11.15;5.63;;;8.60;99.90;;;;;;5049228;28;20048;-71